Accord, New York
Current Conditions -  °F | °C
As of 9:54 AM on Wednesday 22 Oct 2014 (Local Time) from KMGJ Reporting Station
Overcast Overcast  
Wind Chill: 52°   Ceiling: 2000
Heat Index: 52°   Visibility: 10mi
Dew Point: 47°   Wind: 17mph
Humidity: 83%   Direction: 40°NE
Pressure: 29.99"   Gusts: NA
Location:  41.79°N, 74.23°W
Report Text: KMGJ 221354Z AUTO 04015KT 10SM BKN020 OVC030 11/08 A2999 RMK AO2 SLP156 T01110083 TSNO
Loading
Personal Weather Stations






























Interactive Weather Map
Tropical Storm Tracking
New forecast layout! Learn more

10-Day Weather Forecast

Advertisements
Track Severe Weather on mobile